sensor_id;sensor_type;location;lat;lon;timestamp;temperature;humidity
23371;DHT22;11858;51.056;3.712;2023-06-04T00:00:46;17.10;99.90
23371;DHT22;11858;51.056;3.712;2023-06-04T00:03:12;17.10;99.90
23371;DHT22;11858;51.056;3.712;2023-06-04T00:05:37;17.10;99.90
23371;DHT22;11858;51.056;3.712;2023-06-04T00:08:03;16.90;99.90
23371;DHT22;11858;51.056;3.712;2023-06-04T00:10:29;16.90;99.90
23371;DHT22;11858;51.056;3.712;2023-06-04T00:12:55;16.70;99.90
23371;DHT22;11858;51.056;3.712;2023-06-04T00:15:20;16.60;99.90
23371;DHT22;11858;51.056;3.712;2023-06-04T00:17:46;16.60;99.90
23371;DHT22;11858;51.056;3.712;2023-06-04T00:20:12;16.70;99.90
23371;DHT22;11858;51.056;3.712;2023-06-04T00:22:37;16.80;99.90
23371;DHT22;11858;51.056;3.712;2023-06-04T00:25:07;16.80;99.90
23371;DHT22;11858;51.056;3.712;2023-06-04T00:27:33;16.70;99.90
23371;DHT22;11858;51.056;3.712;2023-06-04T00:29:59;16.70;99.90
23371;DHT22;11858;51.056;3.712;2023-06-04T00:32:24;16.80;99.90
23371;DHT22;11858;51.056;3.712;2023-06-04T00:34:54;16.60;99.90
23371;DHT22;11858;51.056;3.712;2023-06-04T00:37:22;16.60;99.90
23371;DHT22;11858;51.056;3.712;2023-06-04T00:39:48;16.50;99.90
23371;DHT22;11858;51.056;3.712;2023-06-04T00:42:13;16.40;99.90
23371;DHT22;11858;51.056;3.712;2023-06-04T00:44:39;16.30;99.90
23371;DHT22;11858;51.056;3.712;2023-06-04T00:47:10;16.40;99.90
23371;DHT22;11858;51.056;3.712;2023-06-04T00:49:37;16.30;99.90
23371;DHT22;11858;51.056;3.712;2023-06-04T00:52:02;16.30;99.90
23371;DHT22;11858;51.056;3.712;2023-06-04T00:54:28;16.50;99.90
23371;DHT22;11858;51.056;3.712;2023-06-04T00:56:54;16.40;99.90
23371;DHT22;11858;51.056;3.712;2023-06-04T00:59:20;16.40;99.90
23371;DHT22;11858;51.056;3.712;2023-06-04T01:02:06;16.40;99.90
23371;DHT22;11858;51.056;3.712;2023-06-04T01:07:18;16.30;99.90
23371;DHT22;11858;51.056;3.712;2023-06-04T01:09:45;16.20;99.90
23371;DHT22;11858;51.056;3.712;2023-06-04T01:12:11;16.10;99.90
23371;DHT22;11858;51.056;3.712;2023-06-04T01:14:37;16.00;99.90
23371;DHT22;11858;51.056;3.712;2023-06-04T01:21:00;16.00;99.90
23371;DHT22;11858;51.056;3.712;2023-06-04T01:25:48;16.10;99.90
23371;DHT22;11858;51.056;3.712;2023-06-04T01:28:15;16.00;99.90
23371;DHT22;11858;51.056;3.712;2023-06-04T01:30:45;16.00;99.90
23371;DHT22;11858;51.056;3.712;2023-06-04T01:33:16;15.90;99.90
23371;DHT22;11858;51.056;3.712;2023-06-04T01:35:42;15.90;99.90
23371;DHT22;11858;51.056;3.712;2023-06-04T01:38:08;15.80;99.90
23371;DHT22;11858;51.056;3.712;2023-06-04T01:40:34;15.70;99.90
23371;DHT22;11858;51.056;3.712;2023-06-04T01:43:00;15.70;99.90
23371;DHT22;11858;51.056;3.712;2023-06-04T01:45:27;15.50;99.90
23371;DHT22;11858;51.056;3.712;2023-06-04T01:47:53;15.50;99.90
23371;DHT22;11858;51.056;3.712;2023-06-04T01:50:20;15.50;99.90
23371;DHT22;11858;51.056;3.712;2023-06-04T01:52:45;15.40;99.90
23371;DHT22;11858;51.056;3.712;2023-06-04T01:55:13;15.30;99.90
23371;DHT22;11858;51.056;3.712;2023-06-04T01:57:41;15.30;99.90
23371;DHT22;11858;51.056;3.712;2023-06-04T02:00:08;15.40;99.90
23371;DHT22;11858;51.056;3.712;2023-06-04T02:02:36;15.50;99.90
23371;DHT22;11858;51.056;3.712;2023-06-04T02:05:04;15.40;99.90
23371;DHT22;11858;51.056;3.712;2023-06-04T02:07:36;15.30;99.90
23371;DHT22;11858;51.056;3.712;2023-06-04T02:10:07;15.40;99.90
23371;DHT22;11858;51.056;3.712;2023-06-04T02:12:33;15.30;99.90
23371;DHT22;11858;51.056;3.712;2023-06-04T02:14:58;15.40;99.90
23371;DHT22;11858;51.056;3.712;2023-06-04T02:17:24;15.40;99.90
23371;DHT22;11858;51.056;3.712;2023-06-04T02:19:50;15.30;99.90
23371;DHT22;11858;51.056;3.712;2023-06-04T02:22:20;15.30;99.90
23371;DHT22;11858;51.056;3.712;2023-06-04T02:24:46;15.30;99.90
23371;DHT22;11858;51.056;3.712;2023-06-04T02:27:13;15.30;99.90
23371;DHT22;11858;51.056;3.712;2023-06-04T02:29:40;15.50;99.90
23371;DHT22;11858;51.056;3.712;2023-06-04T02:32:07;15.20;99.90
23371;DHT22;11858;51.056;3.712;2023-06-04T02:34:33;15.20;99.90
23371;DHT22;11858;51.056;3.712;2023-06-04T02:36:59;15.10;99.90
23371;DHT22;11858;51.056;3.712;2023-06-04T02:39:26;15.20;99.90
23371;DHT22;11858;51.056;3.712;2023-06-04T02:41:51;15.10;99.90
23371;DHT22;11858;51.056;3.712;2023-06-04T02:44:17;14.90;99.90
23371;DHT22;11858;51.056;3.712;2023-06-04T02:46:43;14.90;99.90
23371;DHT22;11858;51.056;3.712;2023-06-04T02:49:10;14.80;99.90
23371;DHT22;11858;51.056;3.712;2023-06-04T02:51:40;14.90;99.90
23371;DHT22;11858;51.056;3.712;2023-06-04T02:54:06;14.90;99.90
23371;DHT22;11858;51.056;3.712;2023-06-04T02:56:32;14.70;99.90
23371;DHT22;11858;51.056;3.712;2023-06-04T02:58:57;14.70;99.90
23371;DHT22;11858;51.056;3.712;2023-06-04T03:01:24;14.70;99.90
23371;DHT22;11858;51.056;3.712;2023-06-04T03:03:51;14.80;99.90
23371;DHT22;11858;51.056;3.712;2023-06-04T03:06:17;14.80;99.90
23371;DHT22;11858;51.056;3.712;2023-06-04T03:08:45;14.80;99.90
23371;DHT22;11858;51.056;3.712;2023-06-04T03:11:11;14.80;99.90
23371;DHT22;11858;51.056;3.712;2023-06-04T03:13:38;14.60;99.90
23371;DHT22;11858;51.056;3.712;2023-06-04T03:16:04;14.80;99.90
23371;DHT22;11858;51.056;3.712;2023-06-04T03:18:37;14.80;99.90
23371;DHT22;11858;51.056;3.712;2023-06-04T03:21:04;14.70;99.90
23371;DHT22;11858;51.056;3.712;2023-06-04T03:23:31;14.80;99.90
23371;DHT22;11858;51.056;3.712;2023-06-04T03:25:56;14.80;99.90
23371;DHT22;11858;51.056;3.712;2023-06-04T03:28:22;14.80;99.90
23371;DHT22;11858;51.056;3.712;2023-06-04T03:30:48;14.70;99.90
23371;DHT22;11858;51.056;3.712;2023-06-04T03:33:13;14.70;99.90
23371;DHT22;11858;51.056;3.712;2023-06-04T03:35:40;14.60;99.90
23371;DHT22;11858;51.056;3.712;2023-06-04T03:38:06;14.80;99.90
23371;DHT22;11858;51.056;3.712;2023-06-04T03:40:32;14.80;99.90
23371;DHT22;11858;51.056;3.712;2023-06-04T03:42:58;14.70;99.90
23371;DHT22;11858;51.056;3.712;2023-06-04T03:45:24;14.50;99.90
23371;DHT22;11858;51.056;3.712;2023-06-04T03:47:49;14.50;99.90
23371;DHT22;11858;51.056;3.712;2023-06-04T03:50:15;14.40;99.90
23371;DHT22;11858;51.056;3.712;2023-06-04T03:52:41;14.40;99.90
23371;DHT22;11858;51.056;3.712;2023-06-04T03:55:06;14.40;99.90
23371;DHT22;11858;51.056;3.712;2023-06-04T03:57:32;14.40;99.90
23371;DHT22;11858;51.056;3.712;2023-06-04T03:59:58;14.50;99.90
23371;DHT22;11858;51.056;3.712;2023-06-04T04:02:24;14.50;99.90
23371;DHT22;11858;51.056;3.712;2023-06-04T04:04:50;14.40;99.90
23371;DHT22;11858;51.056;3.712;2023-06-04T04:07:19;14.40;99.90
23371;DHT22;11858;51.056;3.712;2023-06-04T04:09:46;14.40;99.90
23371;DHT22;11858;51.056;3.712;2023-06-04T04:12:12;14.50;99.90
23371;DHT22;11858;51.056;3.712;2023-06-04T04:14:37;14.50;99.90
23371;DHT22;11858;51.056;3.712;2023-06-04T04:17:03;14.40;99.90
23371;DHT22;11858;51.056;3.712;2023-06-04T04:19:29;14.40;99.90
23371;DHT22;11858;51.056;3.712;2023-06-04T04:21:55;14.30;99.90
23371;DHT22;11858;51.056;3.712;2023-06-04T04:24:27;14.20;99.90
23371;DHT22;11858;51.056;3.712;2023-06-04T04:26:53;14.20;99.90
23371;DHT22;11858;51.056;3.712;2023-06-04T04:29:20;14.10;99.90
23371;DHT22;11858;51.056;3.712;2023-06-04T04:31:54;14.20;99.90
23371;DHT22;11858;51.056;3.712;2023-06-04T04:34:25;14.20;99.90
23371;DHT22;11858;51.056;3.712;2023-06-04T04:36:51;14.20;99.90
23371;DHT22;11858;51.056;3.712;2023-06-04T04:39:23;14.20;99.90
23371;DHT22;11858;51.056;3.712;2023-06-04T04:41:50;14.40;99.90
23371;DHT22;11858;51.056;3.712;2023-06-04T04:44:16;14.50;99.90
23371;DHT22;11858;51.056;3.712;2023-06-04T04:46:42;14.60;99.90
23371;DHT22;11858;51.056;3.712;2023-06-04T04:49:07;14.70;99.90
23371;DHT22;11858;51.056;3.712;2023-06-04T04:51:33;14.60;99.90
23371;DHT22;11858;51.056;3.712;2023-06-04T04:53:59;14.60;99.90
23371;DHT22;11858;51.056;3.712;2023-06-04T04:56:28;14.60;99.90
23371;DHT22;11858;51.056;3.712;2023-06-04T04:58:54;14.50;99.90
23371;DHT22;11858;51.056;3.712;2023-06-04T05:01:20;14.50;99.90
23371;DHT22;11858;51.056;3.712;2023-06-04T05:03:46;14.60;99.90
23371;DHT22;11858;51.056;3.712;2023-06-04T05:06:12;14.60;99.90
23371;DHT22;11858;51.056;3.712;2023-06-04T05:08:38;14.60;99.90
23371;DHT22;11858;51.056;3.712;2023-06-04T05:11:04;14.70;99.90
23371;DHT22;11858;51.056;3.712;2023-06-04T05:13:29;14.80;99.90
23371;DHT22;11858;51.056;3.712;2023-06-04T05:15:55;14.70;99.90
23371;DHT22;11858;51.056;3.712;2023-06-04T05:18:22;14.80;99.90
23371;DHT22;11858;51.056;3.712;2023-06-04T05:21:03;15.00;99.90
23371;DHT22;11858;51.056;3.712;2023-06-04T05:23:29;15.10;99.90
23371;DHT22;11858;51.056;3.712;2023-06-04T05:25:56;15.20;99.90
23371;DHT22;11858;51.056;3.712;2023-06-04T05:28:22;15.20;99.90
23371;DHT22;11858;51.056;3.712;2023-06-04T05:30:51;15.20;99.90
23371;DHT22;11858;51.056;3.712;2023-06-04T05:33:18;15.30;99.90
23371;DHT22;11858;51.056;3.712;2023-06-04T05:35:45;15.20;99.90
23371;DHT22;11858;51.056;3.712;2023-06-04T05:38:11;15.20;99.90
23371;DHT22;11858;51.056;3.712;2023-06-04T05:40:44;15.30;99.90
23371;DHT22;11858;51.056;3.712;2023-06-04T05:43:10;15.30;99.90
23371;DHT22;11858;51.056;3.712;2023-06-04T05:45:36;15.40;99.90
23371;DHT22;11858;51.056;3.712;2023-06-04T05:48:03;15.50;99.90
23371;DHT22;11858;51.056;3.712;2023-06-04T05:50:28;15.60;99.90
23371;DHT22;11858;51.056;3.712;2023-06-04T05:52:54;15.60;99.90
23371;DHT22;11858;51.056;3.712;2023-06-04T05:55:20;15.70;99.90
23371;DHT22;11858;51.056;3.712;2023-06-04T05:57:46;15.70;99.90
23371;DHT22;11858;51.056;3.712;2023-06-04T06:00:12;15.90;99.90
23371;DHT22;11858;51.056;3.712;2023-06-04T06:02:39;15.90;99.90
23371;DHT22;11858;51.056;3.712;2023-06-04T06:05:05;15.90;99.90
23371;DHT22;11858;51.056;3.712;2023-06-04T06:07:33;16.00;99.90
23371;DHT22;11858;51.056;3.712;2023-06-04T06:09:59;16.30;99.90
23371;DHT22;11858;51.056;3.712;2023-06-04T06:12:25;16.40;99.90
23371;DHT22;11858;51.056;3.712;2023-06-04T06:14:51;16.30;99.90
23371;DHT22;11858;51.056;3.712;2023-06-04T06:17:16;16.30;99.90
23371;DHT22;11858;51.056;3.712;2023-06-04T06:19:42;16.50;99.90
23371;DHT22;11858;51.056;3.712;2023-06-04T06:22:08;16.50;99.90
23371;DHT22;11858;51.056;3.712;2023-06-04T06:24:33;16.60;99.90
23371;DHT22;11858;51.056;3.712;2023-06-04T06:26:59;16.60;99.90
23371;DHT22;11858;51.056;3.712;2023-06-04T06:29:25;16.70;99.90
23371;DHT22;11858;51.056;3.712;2023-06-04T06:31:51;16.90;99.90
23371;DHT22;11858;51.056;3.712;2023-06-04T06:34:16;16.90;99.90
23371;DHT22;11858;51.056;3.712;2023-06-04T06:36:42;17.00;99.90
23371;DHT22;11858;51.056;3.712;2023-06-04T06:39:08;17.10;99.90
23371;DHT22;11858;51.056;3.712;2023-06-04T06:41:34;17.10;99.90
23371;DHT22;11858;51.056;3.712;2023-06-04T06:44:00;17.30;99.90
23371;DHT22;11858;51.056;3.712;2023-06-04T06:46:26;17.30;99.90
23371;DHT22;11858;51.056;3.712;2023-06-04T06:48:51;17.40;99.90
23371;DHT22;11858;51.056;3.712;2023-06-04T06:51:17;17.40;99.90
23371;DHT22;11858;51.056;3.712;2023-06-04T06:53:43;17.60;99.90
23371;DHT22;11858;51.056;3.712;2023-06-04T06:56:09;17.80;99.90
23371;DHT22;11858;51.056;3.712;2023-06-04T06:58:34;18.00;99.90
23371;DHT22;11858;51.056;3.712;2023-06-04T07:01:00;18.00;99.90
23371;DHT22;11858;51.056;3.712;2023-06-04T07:03:26;18.00;99.90
23371;DHT22;11858;51.056;3.712;2023-06-04T07:05:52;18.10;99.90
23371;DHT22;11858;51.056;3.712;2023-06-04T07:08:17;18.20;99.90
23371;DHT22;11858;51.056;3.712;2023-06-04T07:10:43;18.20;99.90
23371;DHT22;11858;51.056;3.712;2023-06-04T07:13:09;18.50;99.90
23371;DHT22;11858;51.056;3.712;2023-06-04T07:15:34;18.50;99.90
23371;DHT22;11858;51.056;3.712;2023-06-04T07:18:00;18.60;99.90
23371;DHT22;11858;51.056;3.712;2023-06-04T07:20:26;18.80;99.90
23371;DHT22;11858;51.056;3.712;2023-06-04T07:22:51;18.70;99.90
23371;DHT22;11858;51.056;3.712;2023-06-04T07:25:17;18.80;99.90
23371;DHT22;11858;51.056;3.712;2023-06-04T07:27:43;18.90;99.90
23371;DHT22;11858;51.056;3.712;2023-06-04T07:30:09;19.10;99.90
23371;DHT22;11858;51.056;3.712;2023-06-04T07:32:35;19.20;99.90
23371;DHT22;11858;51.056;3.712;2023-06-04T07:35:02;19.40;99.90
23371;DHT22;11858;51.056;3.712;2023-06-04T07:37:28;19.40;99.90
23371;DHT22;11858;51.056;3.712;2023-06-04T07:39:53;19.60;99.90
23371;DHT22;11858;51.056;3.712;2023-06-04T07:42:19;19.70;99.90
23371;DHT22;11858;51.056;3.712;2023-06-04T07:44:44;19.90;99.90
23371;DHT22;11858;51.056;3.712;2023-06-04T07:47:10;20.00;99.90
23371;DHT22;11858;51.056;3.712;2023-06-04T07:49:36;20.20;99.90
23371;DHT22;11858;51.056;3.712;2023-06-04T07:52:01;20.40;99.90
23371;DHT22;11858;51.056;3.712;2023-06-04T07:54:27;20.50;99.90
23371;DHT22;11858;51.056;3.712;2023-06-04T07:56:53;20.70;99.90
23371;DHT22;11858;51.056;3.712;2023-06-04T07:59:22;20.80;99.90
23371;DHT22;11858;51.056;3.712;2023-06-04T08:01:49;20.80;99.90
23371;DHT22;11858;51.056;3.712;2023-06-04T08:04:15;20.90;99.90
23371;DHT22;11858;51.056;3.712;2023-06-04T08:06:41;21.00;99.90
23371;DHT22;11858;51.056;3.712;2023-06-04T08:09:07;21.00;99.90
23371;DHT22;11858;51.056;3.712;2023-06-04T08:11:35;21.10;99.90
23371;DHT22;11858;51.056;3.712;2023-06-04T08:14:01;21.40;99.90
23371;DHT22;11858;51.056;3.712;2023-06-04T08:16:27;21.60;99.90
23371;DHT22;11858;51.056;3.712;2023-06-04T08:18:52;22.20;99.90
23371;DHT22;11858;51.056;3.712;2023-06-04T08:21:27;23.20;99.90
23371;DHT22;11858;51.056;3.712;2023-06-04T08:23:54;24.10;99.90
23371;DHT22;11858;51.056;3.712;2023-06-04T08:26:20;24.90;99.90
23371;DHT22;11858;51.056;3.712;2023-06-04T08:28:48;25.40;98.10
23371;DHT22;11858;51.056;3.712;2023-06-04T08:31:15;25.90;95.70
23371;DHT22;11858;51.056;3.712;2023-06-04T08:33:41;26.10;92.40
23371;DHT22;11858;51.056;3.712;2023-06-04T08:36:06;26.30;91.50
23371;DHT22;11858;51.056;3.712;2023-06-04T08:38:32;26.60;88.40
23371;DHT22;11858;51.056;3.712;2023-06-04T08:41:12;26.80;85.70
23371;DHT22;11858;51.056;3.712;2023-06-04T08:43:38;27.30;84.00
23371;DHT22;11858;51.056;3.712;2023-06-04T08:46:05;27.40;82.00
23371;DHT22;11858;51.056;3.712;2023-06-04T08:48:34;27.50;80.90
23371;DHT22;11858;51.056;3.712;2023-06-04T08:51:02;28.30;78.30
23371;DHT22;11858;51.056;3.712;2023-06-04T08:53:30;28.40;71.60
23371;DHT22;11858;51.056;3.712;2023-06-04T08:55:56;28.90;71.10
23371;DHT22;11858;51.056;3.712;2023-06-04T08:58:23;29.20;70.30
23371;DHT22;11858;51.056;3.712;2023-06-04T09:00:50;29.40;65.70
23371;DHT22;11858;51.056;3.712;2023-06-04T09:03:16;29.60;65.00
23371;DHT22;11858;51.056;3.712;2023-06-04T09:05:44;29.80;65.80
23371;DHT22;11858;51.056;3.712;2023-06-04T09:08:14;30.00;65.70
23371;DHT22;11858;51.056;3.712;2023-06-04T09:10:41;30.30;63.10
23371;DHT22;11858;51.056;3.712;2023-06-04T09:13:07;30.40;61.10
23371;DHT22;11858;51.056;3.712;2023-06-04T09:15:33;30.20;60.00
23371;DHT22;11858;51.056;3.712;2023-06-04T09:17:59;30.10;59.00
23371;DHT22;11858;51.056;3.712;2023-06-04T09:20:25;30.20;58.50
23371;DHT22;11858;51.056;3.712;2023-06-04T09:22:51;30.60;58.70
23371;DHT22;11858;51.056;3.712;2023-06-04T09:25:24;30.20;56.90
23371;DHT22;11858;51.056;3.712;2023-06-04T09:27:51;30.60;56.00
23371;DHT22;11858;51.056;3.712;2023-06-04T09:30:17;30.80;55.30
23371;DHT22;11858;51.056;3.712;2023-06-04T09:32:43;30.70;56.20
23371;DHT22;11858;51.056;3.712;2023-06-04T09:35:13;31.10;55.00
23371;DHT22;11858;51.056;3.712;2023-06-04T09:37:40;31.10;53.90
23371;DHT22;11858;51.056;3.712;2023-06-04T09:40:07;31.10;53.80
23371;DHT22;11858;51.056;3.712;2023-06-04T09:42:50;31.20;52.90
23371;DHT22;11858;51.056;3.712;2023-06-04T09:45:35;31.30;52.70
23371;DHT22;11858;51.056;3.712;2023-06-04T09:48:01;31.20;51.70
23371;DHT22;11858;51.056;3.712;2023-06-04T09:50:34;30.90;52.70
23371;DHT22;11858;51.056;3.712;2023-06-04T09:53:19;30.90;51.40
23371;DHT22;11858;51.056;3.712;2023-06-04T09:55:57;31.20;51.30
23371;DHT22;11858;51.056;3.712;2023-06-04T09:58:26;31.50;52.20
23371;DHT22;11858;51.056;3.712;2023-06-04T10:00:53;31.60;50.00
23371;DHT22;11858;51.056;3.712;2023-06-04T10:03:20;31.60;50.20
23371;DHT22;11858;51.056;3.712;2023-06-04T10:05:52;32.10;49.10
23371;DHT22;11858;51.056;3.712;2023-06-04T10:08:20;32.10;49.40
23371;DHT22;11858;51.056;3.712;2023-06-04T10:10:47;32.40;50.10
23371;DHT22;11858;51.056;3.712;2023-06-04T10:13:17;32.50;50.40
23371;DHT22;11858;51.056;3.712;2023-06-04T10:15:43;32.40;49.10
23371;DHT22;11858;51.056;3.712;2023-06-04T10:18:10;32.40;48.60
23371;DHT22;11858;51.056;3.712;2023-06-04T10:20:36;32.60;48.50
23371;DHT22;11858;51.056;3.712;2023-06-04T10:23:02;32.30;47.90
23371;DHT22;11858;51.056;3.712;2023-06-04T10:25:29;32.60;48.60
23371;DHT22;11858;51.056;3.712;2023-06-04T10:27:56;32.50;47.60
23371;DHT22;11858;51.056;3.712;2023-06-04T10:30:22;32.20;48.20
23371;DHT22;11858;51.056;3.712;2023-06-04T10:32:47;32.20;48.30
23371;DHT22;11858;51.056;3.712;2023-06-04T10:35:13;32.60;48.60
23371;DHT22;11858;51.056;3.712;2023-06-04T10:37:41;32.80;47.00
23371;DHT22;11858;51.056;3.712;2023-06-04T10:40:07;32.90;47.40
23371;DHT22;11858;51.056;3.712;2023-06-04T10:42:42;33.10;47.30
23371;DHT22;11858;51.056;3.712;2023-06-04T10:45:09;32.90;47.10
23371;DHT22;11858;51.056;3.712;2023-06-04T10:47:35;32.80;47.20
23371;DHT22;11858;51.056;3.712;2023-06-04T10:50:13;32.90;46.90
23371;DHT22;11858;51.056;3.712;2023-06-04T10:52:51;32.80;46.40
23371;DHT22;11858;51.056;3.712;2023-06-04T10:55:17;33.00;46.30
23371;DHT22;11858;51.056;3.712;2023-06-04T11:00:18;32.80;45.80
23371;DHT22;11858;51.056;3.712;2023-06-04T11:02:54;32.60;45.20
23371;DHT22;11858;51.056;3.712;2023-06-04T11:05:21;32.10;45.40
23371;DHT22;11858;51.056;3.712;2023-06-04T11:07:48;32.40;45.30
23371;DHT22;11858;51.056;3.712;2023-06-04T11:10:16;32.70;45.70
23371;DHT22;11858;51.056;3.712;2023-06-04T11:12:49;32.70;44.70
23371;DHT22;11858;51.056;3.712;2023-06-04T11:15:16;33.10;45.00
23371;DHT22;11858;51.056;3.712;2023-06-04T11:17:52;33.90;45.40
23371;DHT22;11858;51.056;3.712;2023-06-04T11:20:20;33.60;45.00
23371;DHT22;11858;51.056;3.712;2023-06-04T11:22:56;33.70;44.40
23371;DHT22;11858;51.056;3.712;2023-06-04T11:25:23;33.60;44.60
23371;DHT22;11858;51.056;3.712;2023-06-04T11:27:52;33.20;44.90
23371;DHT22;11858;51.056;3.712;2023-06-04T11:30:18;33.60;43.80
23371;DHT22;11858;51.056;3.712;2023-06-04T11:32:44;33.20;44.10
23371;DHT22;11858;51.056;3.712;2023-06-04T11:35:10;33.70;43.10
23371;DHT22;11858;51.056;3.712;2023-06-04T11:37:39;34.00;44.10
23371;DHT22;11858;51.056;3.712;2023-06-04T11:40:19;34.50;43.50
23371;DHT22;11858;51.056;3.712;2023-06-04T11:42:48;34.90;43.00
23371;DHT22;11858;51.056;3.712;2023-06-04T11:45:16;34.20;41.50
23371;DHT22;11858;51.056;3.712;2023-06-04T11:47:52;34.30;41.90
23371;DHT22;11858;51.056;3.712;2023-06-04T11:50:19;33.90;42.90
23371;DHT22;11858;51.056;3.712;2023-06-04T11:52:47;34.30;43.50
23371;DHT22;11858;51.056;3.712;2023-06-04T11:55:13;34.40;43.40
23371;DHT22;11858;51.056;3.712;2023-06-04T11:57:40;34.30;42.90
23371;DHT22;11858;51.056;3.712;2023-06-04T12:00:07;34.70;43.20
23371;DHT22;11858;51.056;3.712;2023-06-04T12:02:37;34.50;42.40
23371;DHT22;11858;51.056;3.712;2023-06-04T12:05:16;34.60;41.10
23371;DHT22;11858;51.056;3.712;2023-06-04T12:07:49;33.70;41.30
23371;DHT22;11858;51.056;3.712;2023-06-04T12:10:19;33.40;42.60
23371;DHT22;11858;51.056;3.712;2023-06-04T12:12:45;34.00;43.30
23371;DHT22;11858;51.056;3.712;2023-06-04T12:15:12;34.20;42.50
23371;DHT22;11858;51.056;3.712;2023-06-04T12:17:51;34.60;41.60
23371;DHT22;11858;51.056;3.712;2023-06-04T12:20:17;34.70;42.00
23371;DHT22;11858;51.056;3.712;2023-06-04T12:22:46;34.70;41.60
23371;DHT22;11858;51.056;3.712;2023-06-04T12:25:22;35.10;41.30
23371;DHT22;11858;51.056;3.712;2023-06-04T12:27:48;35.40;41.40
23371;DHT22;11858;51.056;3.712;2023-06-04T12:30:14;35.60;41.40
23371;DHT22;11858;51.056;3.712;2023-06-04T12:32:41;35.50;41.60
23371;DHT22;11858;51.056;3.712;2023-06-04T12:35:08;35.60;41.50
23371;DHT22;11858;51.056;3.712;2023-06-04T12:37:33;35.40;41.10
23371;DHT22;11858;51.056;3.712;2023-06-04T12:39:59;35.50;41.70
23371;DHT22;11858;51.056;3.712;2023-06-04T12:42:25;35.70;41.20
23371;DHT22;11858;51.056;3.712;2023-06-04T12:44:50;35.70;40.80
23371;DHT22;11858;51.056;3.712;2023-06-04T12:47:16;35.70;40.20
23371;DHT22;11858;51.056;3.712;2023-06-04T12:49:42;36.10;40.10
23371;DHT22;11858;51.056;3.712;2023-06-04T12:52:08;36.50;39.40
23371;DHT22;11858;51.056;3.712;2023-06-04T12:54:33;35.80;40.90
23371;DHT22;11858;51.056;3.712;2023-06-04T12:56:59;36.10;40.10
23371;DHT22;11858;51.056;3.712;2023-06-04T12:59:26;35.70;41.00
23371;DHT22;11858;51.056;3.712;2023-06-04T13:01:55;36.00;41.10
23371;DHT22;11858;51.056;3.712;2023-06-04T13:04:21;36.50;40.80
23371;DHT22;11858;51.056;3.712;2023-06-04T13:06:49;36.70;40.30
23371;DHT22;11858;51.056;3.712;2023-06-04T13:09:15;36.00;40.30
23371;DHT22;11858;51.056;3.712;2023-06-04T13:11:44;36.40;41.30
23371;DHT22;11858;51.056;3.712;2023-06-04T13:14:10;36.40;40.20
23371;DHT22;11858;51.056;3.712;2023-06-04T13:16:38;36.40;40.20
23371;DHT22;11858;51.056;3.712;2023-06-04T13:19:05;36.80;40.20
23371;DHT22;11858;51.056;3.712;2023-06-04T13:21:31;36.70;40.70
23371;DHT22;11858;51.056;3.712;2023-06-04T13:23:56;36.40;40.80
23371;DHT22;11858;51.056;3.712;2023-06-04T13:26:22;36.60;41.60
23371;DHT22;11858;51.056;3.712;2023-06-04T13:28:48;36.30;41.70
23371;DHT22;11858;51.056;3.712;2023-06-04T13:31:14;36.40;40.70
23371;DHT22;11858;51.056;3.712;2023-06-04T13:33:39;36.40;40.80
23371;DHT22;11858;51.056;3.712;2023-06-04T13:36:06;36.40;41.30
23371;DHT22;11858;51.056;3.712;2023-06-04T13:38:32;36.40;41.20
23371;DHT22;11858;51.056;3.712;2023-06-04T13:40:58;36.70;41.70
23371;DHT22;11858;51.056;3.712;2023-06-04T13:43:24;36.70;41.00
23371;DHT22;11858;51.056;3.712;2023-06-04T13:45:49;36.60;41.20
23371;DHT22;11858;51.056;3.712;2023-06-04T13:48:15;36.50;41.30
23371;DHT22;11858;51.056;3.712;2023-06-04T13:50:41;36.10;42.20
23371;DHT22;11858;51.056;3.712;2023-06-04T13:53:08;36.20;41.80
23371;DHT22;11858;51.056;3.712;2023-06-04T13:55:34;36.40;42.00
23371;DHT22;11858;51.056;3.712;2023-06-04T13:57:59;36.70;41.40
23371;DHT22;11858;51.056;3.712;2023-06-04T14:00:25;37.00;40.40
23371;DHT22;11858;51.056;3.712;2023-06-04T14:02:51;37.00;40.80
23371;DHT22;11858;51.056;3.712;2023-06-04T14:05:18;36.30;41.20
23371;DHT22;11858;51.056;3.712;2023-06-04T14:07:44;35.90;41.90
23371;DHT22;11858;51.056;3.712;2023-06-04T14:10:12;36.10;41.70
23371;DHT22;11858;51.056;3.712;2023-06-04T14:12:39;35.70;42.30
23371;DHT22;11858;51.056;3.712;2023-06-04T14:15:07;35.50;43.00
23371;DHT22;11858;51.056;3.712;2023-06-04T14:17:33;36.40;42.00
23371;DHT22;11858;51.056;3.712;2023-06-04T14:20:00;36.10;41.70
23371;DHT22;11858;51.056;3.712;2023-06-04T14:22:26;36.30;42.60
23371;DHT22;11858;51.056;3.712;2023-06-04T14:24:51;36.30;42.20
23371;DHT22;11858;51.056;3.712;2023-06-04T14:27:17;36.00;42.90
23371;DHT22;11858;51.056;3.712;2023-06-04T14:29:43;36.10;43.00
23371;DHT22;11858;51.056;3.712;2023-06-04T14:32:08;36.20;41.80
23371;DHT22;11858;51.056;3.712;2023-06-04T14:34:34;36.20;42.50
23371;DHT22;11858;51.056;3.712;2023-06-04T14:37:00;36.80;42.20
23371;DHT22;11858;51.056;3.712;2023-06-04T14:39:27;36.70;41.50
23371;DHT22;11858;51.056;3.712;2023-06-04T14:41:53;36.40;42.00
23371;DHT22;11858;51.056;3.712;2023-06-04T14:44:19;36.30;42.30
23371;DHT22;11858;51.056;3.712;2023-06-04T14:46:45;35.80;42.50
23371;DHT22;11858;51.056;3.712;2023-06-04T14:49:11;35.60;42.80
23371;DHT22;11858;51.056;3.712;2023-06-04T14:51:37;35.50;42.40
23371;DHT22;11858;51.056;3.712;2023-06-04T14:54:02;35.40;42.90
23371;DHT22;11858;51.056;3.712;2023-06-04T14:56:28;35.60;42.80
23371;DHT22;11858;51.056;3.712;2023-06-04T14:58:56;36.00;42.60
23371;DHT22;11858;51.056;3.712;2023-06-04T15:01:22;35.60;42.10
23371;DHT22;11858;51.056;3.712;2023-06-04T15:03:50;35.50;42.60
23371;DHT22;11858;51.056;3.712;2023-06-04T15:06:16;35.10;42.40
23371;DHT22;11858;51.056;3.712;2023-06-04T15:08:42;34.70;43.90
23371;DHT22;11858;51.056;3.712;2023-06-04T15:11:10;35.10;43.60
23371;DHT22;11858;51.056;3.712;2023-06-04T15:13:35;35.30;43.10
23371;DHT22;11858;51.056;3.712;2023-06-04T15:16:02;35.30;46.50
23371;DHT22;11858;51.056;3.712;2023-06-04T15:18:27;35.40;48.80
23371;DHT22;11858;51.056;3.712;2023-06-04T15:20:53;34.40;50.20
23371;DHT22;11858;51.056;3.712;2023-06-04T15:23:18;34.40;51.10
23371;DHT22;11858;51.056;3.712;2023-06-04T15:25:44;34.20;51.60
23371;DHT22;11858;51.056;3.712;2023-06-04T15:28:10;34.30;51.00
23371;DHT22;11858;51.056;3.712;2023-06-04T15:30:35;34.10;50.40
23371;DHT22;11858;51.056;3.712;2023-06-04T15:33:01;33.80;50.30
23371;DHT22;11858;51.056;3.712;2023-06-04T15:35:27;33.70;51.40
23371;DHT22;11858;51.056;3.712;2023-06-04T15:37:53;33.70;52.70
23371;DHT22;11858;51.056;3.712;2023-06-04T15:40:19;34.00;52.50